createdAt,value
2022-08-26T00:02:06.032Z,99149.25
2022-08-26T00:04:34.340Z,99168.38
2022-08-26T00:07:03.445Z,99161.63
2022-08-26T00:09:33.118Z,99154.66
2022-08-26T00:12:05.441Z,99154.47
2022-08-26T00:14:32.478Z,99161.09
2022-08-26T00:17:00.031Z,99166.31
2022-08-26T00:19:28.078Z,99161.50
2022-08-26T00:21:55.268Z,99163.50
2022-08-26T00:24:23.574Z,99155.13
2022-08-26T00:26:51.605Z,99156.59
2022-08-26T00:29:21.367Z,99165.38
2022-08-26T00:31:50.335Z,99160.22
2022-08-26T00:34:19.381Z,99169.25
2022-08-26T00:36:49.257Z,99155.75
2022-08-26T00:39:20.747Z,99152.31
2022-08-26T00:41:49.029Z,99161.88
2022-08-26T00:44:17.534Z,99152.97
2022-08-26T00:46:53.594Z,99149.22
2022-08-26T00:49:53.539Z,99149.03
2022-08-26T00:52:23.850Z,99155.63
2022-08-26T00:55:02.875Z,99153.00
2022-08-26T00:57:32.926Z,99159.03
2022-08-26T01:00:07.402Z,99163.41
2022-08-26T01:02:36.226Z,99163.22
2022-08-26T01:05:06.939Z,99165.19
2022-08-26T01:07:35.793Z,99169.59
2022-08-26T01:10:15.377Z,99174.81
2022-08-26T01:12:49.759Z,99175.69
2022-08-26T01:15:24.325Z,99172.72
2022-08-26T01:17:51.906Z,99169.28
2022-08-26T01:20:46.424Z,99169.88
2022-08-26T01:23:15.031Z,99172.09
2022-08-26T01:25:52.861Z,99177.28
2022-08-26T01:28:28.105Z,99167.81
2022-08-26T01:30:57.936Z,99170.59
2022-08-26T01:33:55.214Z,99166.31
2022-08-26T01:36:23.926Z,99164.16
2022-08-26T01:38:51.386Z,99167.47
2022-08-26T01:41:27.310Z,99161.00
2022-08-26T01:43:57.944Z,99170.81
2022-08-26T01:46:29.954Z,99163.53
2022-08-26T01:49:00.122Z,99161.69
2022-08-26T01:51:29.678Z,99176.94
2022-08-26T01:53:57.814Z,99173.69
2022-08-26T01:56:33.113Z,99176.47
2022-08-26T01:59:08.516Z,99164.59
2022-08-26T02:01:38.214Z,99172.50
2022-08-26T02:04:41.497Z,99177.16
2022-08-26T02:07:10.371Z,99166.88
2022-08-26T02:09:41.249Z,99165.84
2022-08-26T02:12:12.753Z,99163.19
2022-08-26T02:14:50.037Z,99173.78
2022-08-26T02:17:26.288Z,99171.94
2022-08-26T02:19:53.949Z,99167.09
2022-08-26T02:22:24.811Z,99171.47
2022-08-26T02:25:08.305Z,99165.03
2022-08-26T02:27:36.127Z,99161.78
2022-08-26T02:30:24.203Z,99167.50
2022-08-26T02:32:54.746Z,99158.56
2022-08-26T02:35:24.005Z,99172.16
2022-08-26T02:37:53.075Z,99160.78
2022-08-26T02:40:30.318Z,99168.41
2022-08-26T02:42:57.885Z,99157.09
2022-08-26T02:45:27.982Z,99164.41
2022-08-26T02:47:58.066Z,99159.84
2022-08-26T02:50:27.806Z,99156.88
2022-08-26T02:52:55.749Z,99158.00
2022-08-26T02:55:24.799Z,99166.16
2022-08-26T02:57:52.525Z,99159.91
2022-08-26T03:00:19.962Z,99157.25
2022-08-26T03:02:47.167Z,99160.81
2022-08-26T03:05:18.111Z,99152.44
2022-08-26T03:07:46.352Z,99158.69
2022-08-26T03:10:13.841Z,99156.28
2022-08-26T03:12:47.450Z,99150.91
2022-08-26T03:15:18.483Z,99150.94
2022-08-26T03:17:48.286Z,99158.00
2022-08-26T03:20:17.508Z,99151.22
2022-08-26T03:22:46.373Z,99145.59
2022-08-26T03:25:16.916Z,99148.84
2022-08-26T03:27:44.412Z,99141.88
2022-08-26T03:30:32.225Z,99151.06
2022-08-26T03:33:01.105Z,99146.75
2022-08-26T03:35:29.389Z,99151.38
2022-08-26T03:37:56.933Z,99150.28
2022-08-26T03:40:25.195Z,99157.06
2022-08-26T03:42:56.200Z,99153.81
2022-08-26T03:45:23.417Z,99154.38
2022-08-26T03:47:52.178Z,99163.59
2022-08-26T03:50:23.136Z,99163.63
2022-08-26T03:52:53.704Z,99160.94
2022-08-26T03:55:27.314Z,99157.97
2022-08-26T03:57:54.974Z,99157.19
2022-08-26T04:00:23.149Z,99159.34
2022-08-26T04:02:53.391Z,99159.34
2022-08-26T04:05:23.875Z,99156.09
2022-08-26T04:07:51.854Z,99154.50
2022-08-26T04:10:29.037Z,99159.66
2022-08-26T04:13:03.773Z,99162.63
2022-08-26T04:15:31.286Z,99152.38
2022-08-26T04:17:58.546Z,99157.25
2022-08-26T04:20:28.433Z,99162.66
2022-08-26T04:22:55.874Z,99153.44
2022-08-26T04:25:24.295Z,99150.75
2022-08-26T04:27:51.554Z,99146.97
2022-08-26T04:30:20.737Z,99147.47
2022-08-26T04:32:49.825Z,99151.81
2022-08-26T04:35:17.242Z,99152.06
2022-08-26T04:37:44.352Z,99152.31
2022-08-26T04:40:12.637Z,99150.66
2022-08-26T04:42:39.742Z,99156.06
2022-08-26T04:45:10.302Z,99153.31
2022-08-26T04:47:37.914Z,99150.59
2022-08-26T04:50:06.929Z,99150.56
2022-08-26T04:52:36.202Z,99155.16
2022-08-26T04:55:03.922Z,99146.22
2022-08-26T04:57:33.779Z,99152.69
2022-08-26T05:00:01.211Z,99148.34
2022-08-26T05:02:29.338Z,99151.22
2022-08-26T05:04:56.815Z,99152.53
2022-08-26T05:07:24.337Z,99150.88
2022-08-26T05:09:51.694Z,99159.44
2022-08-26T05:12:18.881Z,99155.53
2022-08-26T05:14:46.449Z,99159.25
2022-08-26T05:17:15.020Z,99159.09
2022-08-26T05:19:42.984Z,99155.16
2022-08-26T05:22:10.539Z,99148.47
2022-08-26T05:24:41.701Z,99146.13
2022-08-26T05:27:11.837Z,99147.06
2022-08-26T05:29:40.897Z,99148.97
2022-08-26T05:32:08.310Z,99151.00
2022-08-26T05:34:38.434Z,99144.25
2022-08-26T05:37:06.900Z,99148.66
2022-08-26T05:39:34.695Z,99142.19
2022-08-26T05:42:04.026Z,99140.56
2022-08-26T05:44:53.591Z,99140.84
2022-08-26T05:47:18.444Z,99136.69
2022-08-26T05:49:51.255Z,99146.31
2022-08-26T05:52:19.137Z,99145.03
2022-08-26T05:54:46.468Z,99137.38
2022-08-26T05:57:16.350Z,99132.78
2022-08-26T05:59:46.025Z,99129.25
2022-08-26T06:02:13.354Z,99136.63
2022-08-26T06:04:41.129Z,99129.78
2022-08-26T06:07:09.933Z,99127.66
2022-08-26T06:09:39.757Z,99122.47
2022-08-26T06:12:07.220Z,99129.75
2022-08-26T06:14:35.310Z,99123.41
2022-08-26T06:17:02.771Z,99134.72
2022-08-26T06:19:32.781Z,99137.72
2022-08-26T06:22:23.375Z,99128.44
2022-08-26T06:25:11.003Z,99128.59
2022-08-26T06:27:38.350Z,99121.22
2022-08-26T06:30:07.117Z,99121.88
2022-08-26T06:32:34.549Z,99127.81
2022-08-26T06:35:02.473Z,99123.41
2022-08-26T06:37:29.702Z,99127.38
2022-08-26T06:39:57.694Z,99123.66
2022-08-26T06:42:25.014Z,99128.75
2022-08-26T06:44:52.353Z,99129.53
2022-08-26T06:47:19.571Z,99123.50
2022-08-26T06:49:46.655Z,99114.56
2022-08-26T06:52:15.058Z,99114.66
2022-08-26T06:54:47.137Z,99118.91
2022-08-26T06:57:14.369Z,99120.19
2022-08-26T06:59:45.172Z,99110.09
2022-08-26T07:02:13.829Z,99116.97
2022-08-26T07:04:41.462Z,99113.00
2022-08-26T07:07:09.705Z,99114.09
2022-08-26T07:09:37.627Z,99109.47
2022-08-26T07:12:06.872Z,99113.41
2022-08-26T07:14:35.254Z,99111.97
2022-08-26T07:17:03.223Z,99109.72
2022-08-26T07:19:31.779Z,99111.06
2022-08-26T07:22:04.980Z,99104.66
2022-08-26T07:24:35.801Z,99107.28
2022-08-26T07:27:08.751Z,99100.69
2022-08-26T07:29:39.368Z,99101.25
2022-08-26T07:32:07.983Z,99102.00
2022-08-26T07:34:37.822Z,99092.09
2022-08-26T07:37:05.802Z,99081.97
2022-08-26T07:39:37.631Z,99087.06
2022-08-26T07:42:12.589Z,99090.19
2022-08-26T07:44:42.797Z,99085.44
2022-08-26T07:47:24.667Z,99076.59
2022-08-26T07:49:56.274Z,99083.78
2022-08-26T07:52:27.642Z,99075.09
2022-08-26T07:54:58.724Z,99079.72
2022-08-26T07:57:28.073Z,99080.50
2022-08-26T07:59:56.785Z,99070.06
2022-08-26T08:02:28.230Z,99076.75
2022-08-26T08:04:57.748Z,99066.91
2022-08-26T08:07:44.697Z,99074.28
2022-08-26T08:10:20.981Z,99077.09
2022-08-26T08:12:50.325Z,99070.84
2022-08-26T08:15:21.223Z,99069.56
2022-08-26T08:17:50.442Z,99066.50
2022-08-26T08:20:21.228Z,99069.97
2022-08-26T08:22:52.463Z,99062.44
2022-08-26T08:25:22.773Z,99058.75
2022-08-26T08:27:50.361Z,99053.59
2022-08-26T08:30:22.942Z,99054.47
2022-08-26T08:32:52.299Z,99052.38
2022-08-26T08:35:24.049Z,99051.09
2022-08-26T08:37:54.742Z,99041.59
2022-08-26T08:40:26.881Z,99046.28
2022-08-26T08:43:09.789Z,99049.47
2022-08-26T08:45:52.563Z,99050.47
2022-08-26T08:48:29.470Z,99043.94
2022-08-26T08:51:23.588Z,99043.53
2022-08-26T08:53:54.850Z,99034.41
2022-08-26T08:56:35.184Z,99041.66
2022-08-26T08:59:24.151Z,99035.84
2022-08-26T09:02:30.101Z,99032.53
2022-08-26T09:05:39.983Z,99030.03
2022-08-26T09:08:19.723Z,99021.44
2022-08-26T09:10:54.176Z,99024.72
2022-08-26T09:13:25.184Z,99020.97
2022-08-26T09:16:10.310Z,99022.41
2022-08-26T09:18:59.730Z,99019.50
2022-08-26T09:21:28.991Z,99014.09
2022-08-26T09:23:58.087Z,99018.50
2022-08-26T09:26:44.525Z,99008.19
2022-08-26T09:29:42.218Z,99012.00
2022-08-26T09:32:25.045Z,98999.75
2022-08-26T09:35:07.555Z,99003.56
2022-08-26T09:37:43.791Z,98990.84
2022-08-26T09:40:30.886Z,99007.97
2022-08-26T09:43:10.660Z,99000.41
2022-08-26T09:45:41.228Z,98996.91
2022-08-26T09:48:36.319Z,98996.22
2022-08-26T09:51:30.652Z,98989.88
2022-08-26T09:54:03.188Z,98983.41
2022-08-26T09:56:38.498Z,98989.00
2022-08-26T09:59:11.629Z,98976.41
2022-08-26T10:01:43.170Z,98982.81
2022-08-26T10:04:21.894Z,98974.84
2022-08-26T10:07:02.721Z,98967.75
2022-08-26T10:09:37.595Z,98979.59
2022-08-26T10:12:21.450Z,98967.34
2022-08-26T10:14:56.234Z,98965.38
2022-08-26T10:17:47.892Z,98969.97
2022-08-26T10:20:24.142Z,98973.31
2022-08-26T10:23:18.532Z,98967.34
2022-08-26T10:26:08.625Z,98961.44
2022-08-26T10:28:51.870Z,98966.94
2022-08-26T10:31:38.187Z,98958.25
2022-08-26T10:34:12.497Z,98949.16
2022-08-26T10:37:16.067Z,98940.81
2022-08-26T10:40:02.614Z,98940.84
2022-08-26T10:42:38.821Z,98938.41
2022-08-26T10:45:16.194Z,98943.53
2022-08-26T10:47:59.400Z,98940.38
2022-08-26T10:50:39.194Z,98942.75
2022-08-26T10:53:51.710Z,98940.00
2022-08-26T10:57:23.070Z,98939.25
2022-08-26T11:00:00.371Z,98936.81
2022-08-26T11:02:37.865Z,98939.94
2022-08-26T11:05:20.019Z,98940.00
2022-08-26T11:07:52.611Z,98933.69
2022-08-26T11:10:22.789Z,98932.88
2022-08-26T11:12:59.230Z,98926.50
2022-08-26T11:15:27.986Z,98930.47
2022-08-26T11:18:02.663Z,98923.34
2022-08-26T11:20:41.569Z,98930.50
2022-08-26T11:23:24.092Z,98930.47
2022-08-26T11:25:57.497Z,98921.34
2022-08-26T11:28:50.749Z,98920.94
2022-08-26T11:31:19.367Z,98914.63
2022-08-26T11:33:54.210Z,98921.72
2022-08-26T11:36:40.913Z,98905.03
2022-08-26T11:39:29.721Z,98902.25
2022-08-26T11:42:20.098Z,98904.69
2022-08-26T11:44:49.585Z,98887.63
2022-08-26T11:47:29.300Z,98890.00
2022-08-26T11:50:34.027Z,98889.63
2022-08-26T11:53:06.095Z,98884.84
2022-08-26T11:55:41.793Z,98890.41
2022-08-26T11:58:13.496Z,98885.66
2022-08-26T12:00:58.443Z,98880.84
2022-08-26T12:03:45.309Z,98875.75
2022-08-26T12:06:24.158Z,98875.72
2022-08-26T12:08:55.569Z,98869.41
2022-08-26T12:11:27.607Z,98871.34
2022-08-26T12:14:19.525Z,98867.81
2022-08-26T12:16:47.712Z,98866.22
2022-08-26T12:19:32.727Z,98864.63
2022-08-26T12:22:29.346Z,98865.41
2022-08-26T12:25:01.195Z,98860.53
2022-08-26T12:27:40.122Z,98857.47
2022-08-26T12:30:26.163Z,98855.88
2022-08-26T12:33:22.768Z,98849.09
2022-08-26T12:35:56.266Z,98851.91
2022-08-26T12:38:26.937Z,98849.72
2022-08-26T12:40:57.042Z,98843.22
2022-08-26T12:43:44.645Z,98847.56
2022-08-26T12:46:24.610Z,98840.81
2022-08-26T12:48:51.942Z,98836.06
2022-08-26T12:51:29.951Z,98845.19
2022-08-26T12:53:58.989Z,98834.28
2022-08-26T12:56:39.752Z,98833.84
2022-08-26T12:59:23.186Z,98833.47
2022-08-26T13:01:52.428Z,98829.94
2022-08-26T13:04:39.711Z,98832.84
2022-08-26T13:07:24.941Z,98828.88
2022-08-26T13:09:56.610Z,98824.13
2022-08-26T13:12:37.450Z,98821.75
2022-08-26T13:15:06.644Z,98831.25
2022-08-26T13:17:35.905Z,98830.44
2022-08-26T13:20:04.659Z,98818.34
2022-08-26T13:22:33.345Z,98815.94
2022-08-26T13:25:00.536Z,98813.00
2022-08-26T13:27:28.564Z,98816.59
2022-08-26T13:29:57.650Z,98815.44
2022-08-26T13:32:27.333Z,98817.00
2022-08-26T13:34:57.173Z,98811.84
2022-08-26T13:37:34.874Z,98817.03
2022-08-26T13:40:07.218Z,98815.22
2022-08-26T13:42:34.749Z,98811.69
2022-08-26T13:45:04.120Z,98809.69
2022-08-26T13:47:31.567Z,98806.50
2022-08-26T13:49:58.933Z,98805.78
2022-08-26T13:52:30.625Z,98808.88
2022-08-26T13:55:00.631Z,98806.66
2022-08-26T13:57:30.451Z,98803.50
2022-08-26T13:59:59.368Z,98805.06
2022-08-26T14:02:28.482Z,98792.78
2022-08-26T14:04:58.176Z,98792.41
2022-08-26T14:07:26.245Z,98791.97
2022-08-26T14:09:53.735Z,98793.88
2022-08-26T14:12:21.267Z,98791.50
2022-08-26T14:14:48.598Z,98788.34
2022-08-26T14:17:24.657Z,98791.50
2022-08-26T14:19:53.567Z,98788.81
2022-08-26T14:22:22.409Z,98794.63
2022-08-26T14:24:50.708Z,98794.69
2022-08-26T14:27:18.343Z,98793.97
2022-08-26T14:29:45.502Z,98799.56
2022-08-26T14:32:27.206Z,98794.59
2022-08-26T14:34:56.041Z,98802.06
2022-08-26T14:37:23.345Z,98794.66
2022-08-26T14:39:51.657Z,98792.63
2022-08-26T14:42:27.883Z,98792.28
2022-08-26T14:45:03.048Z,98792.34
2022-08-26T14:47:30.657Z,98790.00
2022-08-26T14:49:58.148Z,98794.69
2022-08-26T14:52:25.462Z,98794.53
2022-08-26T14:54:55.051Z,98800.16
2022-08-26T14:57:22.674Z,98792.88
2022-08-26T14:59:50.481Z,98791.41
2022-08-26T15:02:32.661Z,98788.88
2022-08-26T15:05:02.895Z,98783.00
2022-08-26T15:07:30.682Z,98789.78
2022-08-26T15:09:57.877Z,98798.13
2022-08-26T15:12:25.010Z,98794.44
2022-08-26T15:14:52.680Z,98794.22
2022-08-26T15:17:19.826Z,98793.56
2022-08-26T15:19:47.556Z,98798.59
2022-08-26T15:22:15.046Z,98790.81
2022-08-26T15:24:42.346Z,98793.22
2022-08-26T15:27:09.630Z,98806.94
2022-08-26T15:29:37.463Z,98798.56
2022-08-26T15:32:05.148Z,98796.91
2022-08-26T15:34:32.789Z,98793.25
2022-08-26T15:37:00.019Z,98787.53
2022-08-26T15:39:27.887Z,98781.34
2022-08-26T15:41:56.304Z,98788.22
2022-08-26T15:44:27.460Z,98792.19
2022-08-26T15:46:58.397Z,98795.44
2022-08-26T15:49:27.486Z,98782.91
2022-08-26T15:51:55.003Z,98788.50
2022-08-26T15:54:24.170Z,98782.59
2022-08-26T15:56:53.025Z,98782.06
2022-08-26T15:59:22.074Z,98780.13
2022-08-26T16:01:50.955Z,98783.44
2022-08-26T16:04:18.779Z,98786.66
2022-08-26T16:06:50.006Z,98787.53
2022-08-26T16:09:18.501Z,98775.81
2022-08-26T16:11:50.490Z,98778.94
2022-08-26T16:14:17.859Z,98777.38
2022-08-26T16:16:45.388Z,98778.22
2022-08-26T16:19:13.045Z,98771.94
2022-08-26T16:21:41.433Z,98769.94
2022-08-26T16:24:09.394Z,98764.78
2022-08-26T16:26:39.725Z,98755.81
2022-08-26T16:29:12.291Z,98757.38
2022-08-26T16:31:40.010Z,98755.38
2022-08-26T16:34:09.378Z,98753.50
2022-08-26T16:36:39.109Z,98756.69
2022-08-26T16:39:08.829Z,98750.28
2022-08-26T16:41:36.962Z,98760.53
2022-08-26T16:44:05.966Z,98759.41
2022-08-26T16:46:35.026Z,98752.25
2022-08-26T16:49:04.748Z,98753.81
2022-08-26T16:51:32.721Z,98760.00
2022-08-26T16:54:07.767Z,98753.66
2022-08-26T16:56:35.729Z,98753.94
2022-08-26T16:59:07.542Z,98758.25
2022-08-26T17:01:34.716Z,98753.09
2022-08-26T17:04:02.231Z,98747.06
2022-08-26T17:06:29.773Z,98746.47
2022-08-26T17:08:57.172Z,98744.84
2022-08-26T17:11:24.363Z,98751.09
2022-08-26T17:13:51.889Z,98754.47
2022-08-26T17:16:21.285Z,98752.78
2022-08-26T17:18:50.685Z,98753.09
2022-08-26T17:21:18.312Z,98752.25
2022-08-26T17:23:46.070Z,98760.22
2022-08-26T17:26:13.221Z,98759.41
2022-08-26T17:28:41.191Z,98755.31
2022-08-26T17:31:12.112Z,98756.28
2022-08-26T17:33:40.222Z,98752.56
2022-08-26T17:36:09.073Z,98759.53
2022-08-26T17:38:37.669Z,98755.50
2022-08-26T17:41:10.470Z,98754.28
2022-08-26T17:43:39.474Z,98754.19
2022-08-26T17:46:11.614Z,98751.75
2022-08-26T17:48:41.059Z,98761.41
2022-08-26T17:51:12.053Z,98758.94
2022-08-26T17:53:41.422Z,98767.34
2022-08-26T17:56:15.894Z,98764.75
2022-08-26T17:58:47.897Z,98769.63
2022-08-26T18:01:20.496Z,98761.56
2022-08-26T18:03:48.934Z,98761.44
2022-08-26T18:06:16.499Z,98761.59
2022-08-26T18:08:45.143Z,98762.97
2022-08-26T18:11:17.558Z,98771.41
2022-08-26T18:13:47.580Z,98780.66
2022-08-26T18:16:18.091Z,98770.22
2022-08-26T18:18:47.876Z,98773.16
2022-08-26T18:21:18.762Z,98772.91
2022-08-26T18:23:47.582Z,98778.19
2022-08-26T18:26:22.729Z,98782.63
2022-08-26T18:28:50.519Z,98782.34
2022-08-26T18:31:18.445Z,98778.97
2022-08-26T18:33:46.260Z,98781.09
2022-08-26T18:36:25.057Z,98784.00
2022-08-26T18:38:54.161Z,98781.44
2022-08-26T18:41:25.258Z,98784.00
2022-08-26T18:43:54.035Z,98784.59
2022-08-26T18:46:27.782Z,98785.66
2022-08-26T18:48:57.282Z,98787.06
2022-08-26T18:51:31.070Z,98784.13
2022-08-26T18:54:00.678Z,98788.63
2022-08-26T18:56:29.150Z,98782.03
2022-08-26T18:58:56.329Z,98785.28
2022-08-26T19:01:27.415Z,98785.06
2022-08-26T19:03:57.493Z,98782.00
2022-08-26T19:06:27.549Z,98782.03
2022-08-26T19:08:55.724Z,98786.50
2022-08-26T19:11:32.217Z,98783.22
2022-08-26T19:14:07.560Z,98787.13
2022-08-26T19:16:36.665Z,98779.81
2022-08-26T19:19:05.577Z,98783.94
2022-08-26T19:21:36.367Z,98777.53
2022-08-26T19:24:09.843Z,98785.09
2022-08-26T19:26:38.875Z,98786.69
2022-08-26T19:29:06.738Z,98785.53
2022-08-26T19:31:34.671Z,98782.09
2022-08-26T19:34:02.487Z,98791.13
2022-08-26T19:36:31.002Z,98790.56
2022-08-26T19:38:59.215Z,98783.22
2022-08-26T19:41:36.887Z,98796.81
2022-08-26T19:44:14.026Z,98791.09
2022-08-26T19:46:41.990Z,98798.75
2022-08-26T19:49:09.393Z,98799.28
2022-08-26T19:51:37.013Z,98798.19
2022-08-26T19:54:05.014Z,98803.91
2022-08-26T19:56:32.533Z,98795.78
2022-08-26T19:58:59.735Z,98807.28
2022-08-26T20:01:27.165Z,98806.69
2022-08-26T20:06:26.587Z,98810.38
2022-08-26T20:08:56.171Z,98812.88
2022-08-26T20:11:24.481Z,98814.84
2022-08-26T20:13:51.700Z,98816.63
2022-08-26T20:16:19.316Z,98808.81
2022-08-26T20:19:05.879Z,98817.22
2022-08-26T20:21:38.944Z,98823.09
2022-08-26T20:24:18.046Z,98828.44
2022-08-26T20:26:45.633Z,98831.22
2022-08-26T20:29:17.950Z,98827.38
2022-08-26T20:31:46.728Z,98837.72
2022-08-26T20:34:18.109Z,98833.56
2022-08-26T20:36:48.069Z,98837.13
2022-08-26T20:39:17.406Z,98845.50
2022-08-26T20:41:45.450Z,98841.34
2022-08-26T20:44:14.044Z,98840.56
2022-08-26T20:46:42.490Z,98843.97
2022-08-26T20:49:10.200Z,98844.34
2022-08-26T20:51:37.447Z,98841.78
2022-08-26T20:54:06.978Z,98848.53
2022-08-26T20:56:34.691Z,98845.84
2022-08-26T20:59:03.742Z,98851.00
2022-08-26T21:01:35.250Z,98856.94
2022-08-26T21:04:09.201Z,98857.72
2022-08-26T21:06:38.263Z,98859.34
2022-08-26T21:09:09.833Z,98855.50
2022-08-26T21:11:39.665Z,98853.25
2022-08-26T21:14:16.774Z,98849.41
2022-08-26T21:16:46.333Z,98853.44
2022-08-26T21:19:18.074Z,98850.84
2022-08-26T21:21:47.942Z,98852.13
2022-08-26T21:24:16.332Z,98858.06
2022-08-26T21:26:43.590Z,98853.88
2022-08-26T21:29:12.075Z,98853.56
2022-08-26T21:31:45.069Z,98856.75
2022-08-26T21:34:16.796Z,98853.06
2022-08-26T21:36:48.823Z,98852.72
2022-08-26T21:39:17.349Z,98857.19
2022-08-26T21:41:46.057Z,98853.03
2022-08-26T21:44:16.861Z,98851.22
2022-08-26T21:46:46.282Z,98844.66
2022-08-26T21:49:18.404Z,98850.56
2022-08-26T21:51:48.468Z,98849.09
2022-08-26T21:54:18.169Z,98850.06
2022-08-26T21:56:47.070Z,98854.50
2022-08-26T21:59:19.140Z,98850.34
2022-08-26T22:01:47.422Z,98844.50
2022-08-26T22:04:16.121Z,98854.41
2022-08-26T22:06:52.013Z,98853.44
2022-08-26T22:09:26.877Z,98847.66
2022-08-26T22:11:56.987Z,98848.88
2022-08-26T22:14:30.765Z,98852.88
2022-08-26T22:16:59.847Z,98855.72
2022-08-26T22:19:27.516Z,98848.47
2022-08-26T22:21:55.799Z,98847.34
2022-08-26T22:24:26.930Z,98852.09
2022-08-26T22:26:56.009Z,98853.53
2022-08-26T22:29:25.058Z,98860.41
2022-08-26T22:31:53.453Z,98866.78
2022-08-26T22:34:23.080Z,98872.34
2022-08-26T22:36:50.656Z,98869.75
2022-08-26T22:39:24.350Z,98860.88
2022-08-26T22:41:54.259Z,98866.09
2022-08-26T22:44:22.206Z,98865.13
2022-08-26T22:46:54.403Z,98863.94
2022-08-26T22:49:22.242Z,98863.56
2022-08-26T22:51:50.920Z,98865.59
2022-08-26T22:54:18.364Z,98863.78
2022-08-26T22:56:45.641Z,98865.22
2022-08-26T22:59:13.829Z,98856.88
2022-08-26T23:01:43.618Z,98856.19
2022-08-26T23:04:11.865Z,98864.47
2022-08-26T23:06:43.268Z,98851.56
2022-08-26T23:09:18.795Z,98850.88
2022-08-26T23:11:48.483Z,98845.88
2022-08-26T23:14:18.562Z,98848.19
2022-08-26T23:16:47.553Z,98842.56
2022-08-26T23:19:18.525Z,98839.94
2022-08-26T23:21:46.107Z,98831.28
2022-08-26T23:24:14.281Z,98836.53
2022-08-26T23:26:42.892Z,98837.13
2022-08-26T23:29:13.385Z,98833.41
2022-08-26T23:31:42.835Z,98835.13
2022-08-26T23:34:29.948Z,98837.34
2022-08-26T23:36:59.505Z,98827.69
2022-08-26T23:39:29.318Z,98828.88
2022-08-26T23:41:57.378Z,98817.03
2022-08-26T23:44:26.687Z,98816.00
2022-08-26T23:46:55.410Z,98820.44
2022-08-26T23:49:23.192Z,98817.81
2022-08-26T23:52:09.290Z,98821.44
2022-08-26T23:54:38.890Z,98814.00
2022-08-26T23:57:07.785Z,98809.47
2022-08-26T23:59:39.089Z,98821.44
